Detall de PIREP

Printer-friendly versionPDF version

[2013/08/02 09:02:00]
Flight IATA:CT1004
Pilot Number:042
Company ICAO:CAT
Aircraft Type:MD11/E
PAX:300
Aircraft Registration:PAX
Departing Airport: LSZH
Destination Airport: LEAL
Alternate Airport:LEPA
Online: VATSIM
Route:VEBIT T50 ROTOS UZ669 MILPA UN852 VERSO UL129 POS UN850 ADX UZ237 OKITI UM603 GERVU
Flight Level:F350
No Slew and time accel
No pause
Crash detect
Detect pilot in Cockpit between each 30 and 45 minutes
09:02 Zero fuel Weight: 377797 Lbs, Fuel Weight: 85379 Lbs
09:02 VATSIM:LSZH 020820Z VRB02KT CAVOK 27/18 Q1018 NOSIG
09:02 VATSIM:LEAL 020830Z 07008KT 040V100 CAVOK 28/18 Q1016 NOSIG
09:02 VOICE CATALONIAN/SUMMER CHARTER
09:03 Parking Brakes off
09:08 Take-off
09:08 Take off Weight: 461891 Lbs
09:08 Wind: 290º @ 004 Knots Heading: 276º
09:08 POS N47º 27´ 30´´ E008º 32´ 43´´
09:08 Gear Up: 164 Knots
09:08 Flaps:5 at 164 Knots
09:08 Flaps:4 at 172 Knots
09:08 Flaps:3 at 172 Knots
09:08 Flaps:2 at 173 Knots
09:08 Flaps:1 at 174 Knots
09:09 Flaps:0 at 174 Knots
09:23 Wind:328º@071 Knots Heading: 248º Ground Speed: 474 Knots Altitude 34146 ft
09:31 TOC
09:31 Fuel Weight: 72877 Lb
09:38 Wind:321º@075 Knots Heading: 199º Ground Speed: 523 Knots Altitude 35118 ft
09:53 Wind:314º@059 Knots Heading: 215º Ground Speed: 486 Knots Altitude 37099 ft
10:08 Wind:300º@070 Knots Heading: 209º Ground Speed: 480 Knots Altitude 37099 ft
10:23 Wind:301º@067 Knots Heading: 246º Ground Speed: 437 Knots Altitude 37106 ft
10:28 TOD
10:28 Fuel Weight: 58540 Lb
10:38 Wind:308º@032 Knots Heading: 259º Ground Speed: 308 Knots Altitude 18234 ft
10:47 Flaps:1 at 249 Knots
10:48 Flaps:2 at 242 Knots
10:48 Flaps:3 at 241 Knots
10:50 Flaps:4 at 179 Knots
10:50 Flaps:3 at 179 Knots
10:50 Flaps:4 at 180 Knots
10:51 Flaps:5 at 181 Knots
10:51 Flaps:6 at 182 Knots
10:51 Gear Down: 176 Knots
10:51 Flaps:7 at 179 Knots
10:52 Flaps:8 at 180 Knots
10:52 Flaps:7 at 180 Knots
10:53 Wind:216º@005 Knots Heading: 101º Ground Speed: 188 Knots Altitude 1322 ft
10:54 Flaps:8 at 174 Knots
10:54 TouchDown:Rate -179 ft/min Speed: 171 Knots
10:54 VATSIM:LEAL 021030Z 09009KT 9999 FEW025 29/22 Q1017 NOSIG
10:54 Land
10:54 Wind:189º@005 Knots
10:54 Heading: 101º
10:54 Flight Duration: 01:46
10:54 Landing Weight: 432557 Lbs
10:54 POS N38º 16´ 53´´ W000º 33´ 13´´
11:00 Parking brakes on
11:00 Block to Block Duration: 01:57
11:00 Final Fuel: 53957 Lbls
11:00 Spent Fuel: 31422 Lbls
11:00 Flight Length: 760 NM
11:00 TOD Land Length: 130 NM

Exportar CSV

Powered by Drupal - Modified by Danger4k